Time;durP1;ratioP1;P1;durP2;ratioP2;P2;SDS_P1;SDS_P2;PMS_P1;PMS_P2;Temp;Humidity;BMP_temperature;BMP_pressure;BME280_temperature;BME280_humidity;BME280_pressure;Samples;Min_cycle;Max_cycle;Signal;HPM_P1;HPM_P2
2022/01/12 00:00:42;;;;;;;13.52;6.53;;;;;;;;;;6242644;28;20087;-68
2022/01/12 00:03:48;;;;;;;14.00;5.90;;;;;;;;;;6225983;28;20053;-67
2022/01/12 00:06:51;;;;;;;17.42;5.80;;;;;;;;;;6243690;28;20500;-69
2022/01/12 00:09:56;;;;;;;32.67;14.52;;;;;;;;;;6225471;28;20077;-69
2022/01/12 00:13:02;;;;;;;13.93;6.07;;;;;;;;;;6241094;28;20053;-69
2022/01/12 00:16:06;;;;;;;11.20;5.75;;;;;;;;;;6255296;28;20045;-69
2022/01/12 00:19:09;;;;;;;13.48;5.70;;;;;;;;;;6261195;28;20049;-68
2022/01/12 00:22:13;;;;;;;15.85;6.43;;;;;;;;;;6267490;28;20045;-68
2022/01/12 00:35:33;;;;;;;13.52;6.15;;;;;;;;;;6265906;28;20052;-69
2022/01/12 00:38:36;;;;;;;14.70;6.75;;;;;;;;;;6265723;28;20071;-68
2022/01/12 00:41:40;;;;;;;15.93;7.47;;;;;;;;;;6266545;28;20052;-68
2022/01/12 00:44:46;;;;;;;14.25;6.35;;;;;;;;;;6265909;28;20040;-68
2022/01/12 00:47:50;;;;;;;16.70;6.70;;;;;;;;;;6256965;28;20067;-68
2022/01/12 00:50:53;;;;;;;17.55;6.90;;;;;;;;;;6267459;28;20045;-68
2022/01/12 00:53:56;;;;;;;16.70;6.82;;;;;;;;;;6266571;28;20155;-68
2022/01/12 00:56:59;;;;;;;14.05;6.60;;;;;;;;;;6265262;28;20045;-70
2022/01/12 01:00:03;;;;;;;15.45;6.60;;;;;;;;;;6266883;28;20496;-68
2022/01/12 01:03:08;;;;;;;13.63;6.20;;;;;;;;;;6266496;28;20051;-68
2022/01/12 01:06:13;;;;;;;15.48;6.80;;;;;;;;;;6267210;28;20502;-68
2022/01/12 01:09:16;;;;;;;13.98;6.30;;;;;;;;;;6265147;28;20053;-68
2022/01/12 01:12:19;;;;;;;14.18;6.50;;;;;;;;;;6266256;28;20048;-68
2022/01/12 01:15:38;;;;;;;12.82;6.22;;;;;;;;;;6266282;28;20052;-68
2022/01/12 01:25:31;;;;;;;17.33;6.57;;;;;;;;;;6265756;28;21043;-68
2022/01/12 01:28:34;;;;;;;12.32;5.95;;;;;;;;;;6260772;28;20373;-68
2022/01/12 01:31:39;;;;;;;16.00;7.10;;;;;;;;;;6260331;28;20128;-68
2022/01/12 01:34:47;;;;;;;15.73;6.43;;;;;;;;;;6270363;28;20051;-68
2022/01/12 01:37:54;;;;;;;15.30;7.10;;;;;;;;;;6270707;28;20048;-68
2022/01/12 01:40:59;;;;;;;15.75;7.18;;;;;;;;;;6270441;28;20068;-68
2022/01/12 01:44:30;;;;;;;15.15;6.75;;;;;;;;;;6269152;28;20080;-68
2022/01/12 01:54:16;;;;;;;15.88;6.72;;;;;;;;;;6270503;28;20041;-70
2022/01/12 01:57:24;;;;;;;16.08;6.38;;;;;;;;;;6268833;28;20052;-68
2022/01/12 02:00:33;;;;;;;16.02;5.80;;;;;;;;;;6270880;28;20052;-69
2022/01/12 02:03:41;;;;;;;15.68;7.07;;;;;;;;;;6270184;28;20065;-69
2022/01/12 02:06:47;;;;;;;12.52;5.60;;;;;;;;;;6269681;28;20092;-68
2022/01/12 02:09:57;;;;;;;14.88;6.20;;;;;;;;;;6268651;28;20076;-69
2022/01/12 02:13:18;;;;;;;11.60;6.25;;;;;;;;;;6269806;28;20059;-69
2022/01/12 02:16:29;;;;;;;12.80;5.97;;;;;;;;;;6269941;28;20052;-69
2022/01/12 02:19:52;;;;;;;12.77;5.70;;;;;;;;;;6270522;28;20350;-68
2022/01/12 02:36:33;;;;;;;12.75;5.78;;;;;;;;;;6269411;28;20087;-68
2022/01/12 02:39:54;;;;;;;;;;;;;;;;;;6270447;28;20075;-69
2022/01/12 02:43:07;;;;;;;13.82;5.50;;;;;;;;;;6268552;28;19927;-70
2022/01/12 02:56:19;;;;;;;12.18;5.65;;;;;;;;;;6270140;28;20049;-70
2022/01/12 02:59:23;;;;;;;12.68;6.15;;;;;;;;;;6269397;28;20052;-70
2022/01/12 03:02:32;;;;;;;12.40;5.60;;;;;;;;;;6267706;28;20045;-68
2022/01/12 03:05:46;;;;;;;11.43;5.53;;;;;;;;;;6268200;28;20041;-70
2022/01/12 03:08:49;;;;;;;16.70;6.53;;;;;;;;;;6268869;28;20055;-68
2022/01/12 03:11:52;;;;;;;11.98;5.65;;;;;;;;;;6268479;28;20442;-69
2022/01/12 03:14:57;;;;;;;14.90;5.55;;;;;;;;;;6267013;28;20043;-70
2022/01/12 03:18:00;;;;;;;14.90;5.75;;;;;;;;;;6268596;28;20041;-70
2022/01/12 03:21:03;;;;;;;11.63;5.70;;;;;;;;;;6268280;28;20045;-70
2022/01/12 03:24:07;;;;;;;16.70;6.47;;;;;;;;;;6267229;28;20044;-68
2022/01/12 03:27:13;;;;;;;14.52;6.18;;;;;;;;;;6268897;28;20139;-70
2022/01/12 03:30:20;;;;;;;12.85;6.15;;;;;;;;;;6268160;28;20093;-70
2022/01/12 03:33:38;;;;;;;16.40;6.60;;;;;;;;;;6268996;28;20621;-67
2022/01/12 03:36:55;;;;;;;17.00;5.90;;;;;;;;;;6266452;28;20438;-68
2022/01/12 03:39:58;;;;;;;13.90;6.43;;;;;;;;;;6269111;28;20228;-68
2022/01/12 03:43:01;;;;;;;16.98;5.80;;;;;;;;;;6267685;28;20053;-68
2022/01/12 03:46:08;;;;;;;15.97;6.00;;;;;;;;;;6268421;28;20466;-69
2022/01/12 03:49:14;;;;;;;12.88;5.85;;;;;;;;;;6266359;28;20309;-69
2022/01/12 03:52:18;;;;;;;12.13;5.40;;;;;;;;;;6267718;28;20045;-69
2022/01/12 03:55:22;;;;;;;16.40;6.00;;;;;;;;;;6267903;28;20044;-69
2022/01/12 03:58:25;;;;;;;14.48;5.30;;;;;;;;;;6265967;28;20183;-69
2022/01/12 04:01:29;;;;;;;13.65;5.32;;;;;;;;;;6268490;28;20480;-69
2022/01/12 04:04:42;;;;;;;14.65;6.18;;;;;;;;;;6267337;28;20049;-70
2022/01/12 04:11:08;;;;;;;13.60;5.45;;;;;;;;;;6267021;28;20081;-69
2022/01/12 04:14:11;;;;;;;12.45;5.30;;;;;;;;;;6267172;28;20056;-69
2022/01/12 04:17:15;;;;;;;13.52;5.03;;;;;;;;;;6267072;28;20051;-68
2022/01/12 04:20:23;;;;;;;12.73;5.60;;;;;;;;;;6265665;28;20815;-68
2022/01/12 04:23:26;;;;;;;12.38;5.75;;;;;;;;;;6266261;28;20041;-69
2022/01/12 04:26:30;;;;;;;12.18;5.50;;;;;;;;;;6266743;28;20466;-69
2022/01/12 04:29:33;;;;;;;17.02;5.45;;;;;;;;;;6266384;28;20041;-69
2022/01/12 04:32:42;;;;;;;13.68;5.80;;;;;;;;;;6265708;28;20049;-70
2022/01/12 04:35:51;;;;;;;18.73;7.43;;;;;;;;;;6266711;28;20060;-69
2022/01/12 04:38:54;;;;;;;20.67;8.85;;;;;;;;;;6266600;28;20450;-70
2022/01/12 04:41:57;;;;;;;12.57;5.82;;;;;;;;;;6265188;28;20171;-69
2022/01/12 04:45:15;;;;;;;19.15;6.13;;;;;;;;;;6266097;28;20053;-69
2022/01/12 04:48:36;;;;;;;15.18;5.97;;;;;;;;;;6266655;28;20453;-70
2022/01/12 04:51:40;;;;;;;18.20;7.45;;;;;;;;;;6266579;28;20075;-70
2022/01/12 04:54:43;;;;;;;15.40;6.40;;;;;;;;;;6266311;28;20049;-69
2022/01/12 04:57:46;;;;;;;15.90;6.28;;;;;;;;;;6267522;28;20045;-70
2022/01/12 05:00:52;;;;;;;13.77;6.32;;;;;;;;;;6266302;28;20407;-70
2022/01/12 05:07:28;;;;;;;14.30;5.95;;;;;;;;;;6269655;28;20049;-72
2022/01/12 05:13:56;;;;;;;15.27;5.82;;;;;;;;;;6271430;28;20037;-70
2022/01/12 05:16:59;;;;;;;12.05;5.72;;;;;;;;;;6270818;28;20040;-71
2022/01/12 05:20:04;;;;;;;16.90;6.40;;;;;;;;;;6269834;28;20187;-73
2022/01/12 05:23:07;;;;;;;17.10;5.93;;;;;;;;;;6271092;28;20122;-70
2022/01/12 05:26:11;;;;;;;15.55;6.20;;;;;;;;;;6270997;28;20175;-70
2022/01/12 05:29:14;;;;;;;15.13;6.10;;;;;;;;;;6269616;28;20182;-70
2022/01/12 05:32:17;;;;;;;14.50;5.78;;;;;;;;;;6270772;28;20048;-70
2022/01/12 05:35:30;;;;;;;15.07;6.18;;;;;;;;;;6269826;28;20037;-72
2022/01/12 05:38:34;;;;;;;15.20;5.78;;;;;;;;;;6265484;28;20111;-72
2022/01/12 05:41:38;;;;;;;15.93;6.22;;;;;;;;;;6244498;28;20057;-72
2022/01/12 05:44:42;;;;;;;15.05;6.53;;;;;;;;;;6243163;28;20132;-72
2022/01/12 05:51:24;;;;;;;14.60;6.23;;;;;;;;;;6202002;28;20092;-72
2022/01/12 05:54:27;;;;;;;14.23;5.78;;;;;;;;;;6202250;28;20725;-72
2022/01/12 05:57:33;;;;;;;13.85;6.15;;;;;;;;;;6267881;28;20060;-72
2022/01/12 06:00:36;;;;;;;14.68;5.88;;;;;;;;;;6271314;28;20036;-72
2022/01/12 06:03:39;;;;;;;18.77;7.35;;;;;;;;;;6268468;28;20068;-72
2022/01/12 06:06:44;;;;;;;17.88;6.88;;;;;;;;;;6270131;28;20048;-72
2022/01/12 06:09:47;;;;;;;14.07;5.78;;;;;;;;;;6269863;28;20051;-72
2022/01/12 06:12:53;;;;;;;12.88;5.85;;;;;;;;;;6270074;28;20044;-70
2022/01/12 06:15:59;;;;;;;;;;;;;;;;;;6269425;28;20053;-71
2022/01/12 06:19:04;;;;;;;15.80;6.03;;;;;;;;;;6269343;28;19920;-71
2022/01/12 06:22:18;;;;;;;16.55;7.07;;;;;;;;;;6269380;28;20053;-71
2022/01/12 06:25:21;;;;;;;14.60;7.30;;;;;;;;;;6267842;28;20052;-71
2022/01/12 06:28:37;;;;;;;19.52;6.75;;;;;;;;;;6269440;28;20048;-70
2022/01/12 06:31:41;;;;;;;17.92;6.97;;;;;;;;;;6269734;28;20411;-71
2022/01/12 06:34:45;;;;;;;21.70;7.30;;;;;;;;;;6269894;28;20443;-70
2022/01/12 06:37:50;;;;;;;18.33;7.72;;;;;;;;;;6268205;28;20049;-71
2022/01/12 06:40:54;;;;;;;21.73;8.05;;;;;;;;;;6269043;28;20068;-71
2022/01/12 06:44:00;;;;;;;20.20;7.75;;;;;;;;;;6269261;28;20088;-70
2022/01/12 06:47:05;;;;;;;24.60;7.97;;;;;;;;;;6267477;28;20056;-70
2022/01/12 06:50:09;;;;;;;18.77;7.68;;;;;;;;;;6268793;28;20056;-70
2022/01/12 06:53:13;;;;;;;19.60;8.18;;;;;;;;;;6268878;28;20048;-71
2022/01/12 06:56:17;;;;;;;18.77;7.43;;;;;;;;;;6267915;28;20041;-71
2022/01/12 06:59:26;;;;;;;21.55;7.82;;;;;;;;;;6267561;28;20052;-72
2022/01/12 07:02:32;;;;;;;20.70;7.75;;;;;;;;;;6268811;28;20045;-72
2022/01/12 07:05:35;;;;;;;22.67;8.60;;;;;;;;;;6268476;28;20494;-72
2022/01/12 07:08:39;;;;;;;24.80;8.80;;;;;;;;;;6266751;28;20049;-72
2022/01/12 07:11:48;;;;;;;26.20;8.57;;;;;;;;;;6268523;28;20055;-72
2022/01/12 07:14:59;;;;;;;18.15;8.18;;;;;;;;;;6268497;28;20114;-72
2022/01/12 07:18:03;;;;;;;24.55;8.68;;;;;;;;;;6267566;28;20483;-71
2022/01/12 07:21:07;;;;;;;20.75;8.73;;;;;;;;;;6266634;28;20037;-72
2022/01/12 07:24:11;;;;;;;21.85;8.80;;;;;;;;;;6261818;28;20518;-71
2022/01/12 07:27:14;;;;;;;23.45;9.35;;;;;;;;;;6253693;28;20044;-73
2022/01/12 07:30:17;;;;;;;29.92;9.98;;;;;;;;;;6257061;28;20412;-71
2022/01/12 07:33:22;;;;;;;20.95;8.55;;;;;;;;;;6251576;28;20049;-71
2022/01/12 07:36:25;;;;;;;24.17;9.40;;;;;;;;;;6269170;28;20112;-71
2022/01/12 07:39:29;;;;;;;20.67;8.73;;;;;;;;;;6267758;28;20052;-69
2022/01/12 07:42:32;;;;;;;19.42;9.07;;;;;;;;;;6268112;28;20045;-71
2022/01/12 07:45:44;;;;;;;19.55;8.45;;;;;;;;;;6268715;28;20447;-71
2022/01/12 07:48:47;;;;;;;21.70;9.20;;;;;;;;;;6268920;28;20048;-71
2022/01/12 07:51:50;;;;;;;25.60;9.85;;;;;;;;;;6267242;28;20068;-71
2022/01/12 07:54:54;;;;;;;22.27;8.77;;;;;;;;;;6268819;28;20086;-71
2022/01/12 07:57:58;;;;;;;21.67;9.23;;;;;;;;;;6268667;28;20053;-72
2022/01/12 08:01:01;;;;;;;20.42;9.32;;;;;;;;;;6249239;28;20044;-71
2022/01/12 08:04:07;;;;;;;22.63;9.73;;;;;;;;;;6250256;28;20057;-70
2022/01/12 08:07:13;;;;;;;23.10;9.70;;;;;;;;;;6250892;28;20055;-71
2022/01/12 08:10:17;;;;;;;27.75;9.07;;;;;;;;;;6268344;28;20049;-71
2022/01/12 08:13:20;;;;;;;22.35;9.18;;;;;;;;;;6266523;28;20045;-72
2022/01/12 08:16:23;;;;;;;24.92;10.52;;;;;;;;;;6268571;28;20481;-71
2022/01/12 08:19:27;;;;;;;23.08;11.13;;;;;;;;;;6268290;28;20048;-73
2022/01/12 08:22:30;;;;;;;21.30;9.73;;;;;;;;;;6266410;28;20041;-71
2022/01/12 08:25:36;;;;;;;28.27;10.55;;;;;;;;;;6268182;28;20174;-72
2022/01/12 08:28:42;;;;;;;24.27;10.30;;;;;;;;;;6268140;28;20041;-72
2022/01/12 08:31:46;;;;;;;25.08;11.38;;;;;;;;;;6267695;28;20049;-72
2022/01/12 08:34:51;;;;;;;29.75;11.10;;;;;;;;;;6265501;28;20044;-73
2022/01/12 08:37:55;;;;;;;28.38;11.25;;;;;;;;;;6267846;28;20079;-73
2022/01/12 08:40:59;;;;;;;28.00;10.23;;;;;;;;;;6279785;28;20407;-73
2022/01/12 08:44:02;;;;;;;24.00;10.10;;;;;;;;;;6248287;28;20048;-72
2022/01/12 08:47:06;;;;;;;24.45;10.10;;;;;;;;;;6267723;28;20045;-72
2022/01/12 08:50:09;;;;;;;25.90;10.68;;;;;;;;;;6253309;28;20590;-72
2022/01/12 08:53:13;;;;;;;22.42;10.23;;;;;;;;;;6253612;28;20037;-73
2022/01/12 08:56:19;;;;;;;26.27;9.88;;;;;;;;;;6253540;28;20163;-74
2022/01/12 08:59:22;;;;;;;25.33;10.32;;;;;;;;;;6225357;28;20053;-73
2022/01/12 09:02:28;;;;;;;22.98;9.90;;;;;;;;;;6242890;28;20052;-74
2022/01/12 09:05:32;;;;;;;26.35;9.20;;;;;;;;;;6241100;28;20454;-74
2022/01/12 09:08:38;;;;;;;25.38;10.95;;;;;;;;;;6223341;28;20095;-74
2022/01/12 09:11:43;;;;;;;34.38;10.32;;;;;;;;;;6240647;28;20439;-74
2022/01/12 09:14:50;;;;;;;27.23;11.05;;;;;;;;;;6222300;28;20069;-73
2022/01/12 09:17:56;;;;;;;26.95;10.38;;;;;;;;;;6221778;28;20050;-73
2022/01/12 09:21:02;;;;;;;21.90;9.65;;;;;;;;;;6240783;28;20041;-74
2022/01/12 09:24:05;;;;;;;20.38;9.65;;;;;;;;;;6242454;28;20103;-73
2022/01/12 09:27:12;;;;;;;23.17;9.63;;;;;;;;;;6241111;28;20369;-73
2022/01/12 09:30:15;;;;;;;23.33;10.23;;;;;;;;;;6242757;28;20400;-74
2022/01/12 09:33:18;;;;;;;20.75;8.40;;;;;;;;;;6242535;28;20045;-73
2022/01/12 09:36:22;;;;;;;21.95;9.20;;;;;;;;;;6223954;28;20499;-73
2022/01/12 09:39:27;;;;;;;26.83;10.93;;;;;;;;;;6240637;28;20049;-73
2022/01/12 09:42:33;;;;;;;21.38;9.38;;;;;;;;;;6242054;28;20329;-73
2022/01/12 09:45:37;;;;;;;18.65;8.52;;;;;;;;;;6224912;28;20050;-72
2022/01/12 09:48:43;;;;;;;23.13;10.00;;;;;;;;;;6240873;28;20050;-73
2022/01/12 09:51:45;;;;;;;22.42;10.15;;;;;;;;;;6225430;28;20045;-73
2022/01/12 09:54:51;;;;;;;22.25;9.85;;;;;;;;;;6247095;28;20049;-73
2022/01/12 09:57:55;;;;;;;23.70;9.55;;;;;;;;;;6245638;28;20084;-71
2022/01/12 10:00:59;;;;;;;21.38;9.93;;;;;;;;;;6245928;28;20050;-72
2022/01/12 10:04:11;;;;;;;19.80;9.43;;;;;;;;;;6228829;28;20911;-72
2022/01/12 10:07:22;;;;;;;32.92;11.43;;;;;;;;;;6245377;28;20103;-72
2022/01/12 10:10:25;;;;;;;23.55;10.32;;;;;;;;;;6244818;28;20447;-71
2022/01/12 10:13:29;;;;;;;23.92;9.98;;;;;;;;;;6246409;28;20049;-72
2022/01/12 10:16:32;;;;;;;22.90;10.10;;;;;;;;;;6246557;28;20045;-72
2022/01/12 10:19:38;;;;;;;27.25;9.63;;;;;;;;;;6245493;28;20107;-72
2022/01/12 10:22:44;;;;;;;29.38;10.88;;;;;;;;;;6245289;28;20120;-72
2022/01/12 10:25:48;;;;;;;28.77;11.57;;;;;;;;;;6246476;28;20050;-72
2022/01/12 10:29:18;;;;;;;28.85;10.35;;;;;;;;;;6228235;28;20537;-72
2022/01/12 10:32:23;;;;;;;24.10;9.90;;;;;;;;;;6244665;28;20136;-73
2022/01/12 10:35:27;;;;;;;23.52;9.45;;;;;;;;;;6227833;28;20128;-73
2022/01/12 10:38:33;;;;;;;24.23;10.60;;;;;;;;;;6245954;28;20049;-73
2022/01/12 10:41:36;;;;;;;21.10;9.57;;;;;;;;;;6227368;28;20062;-73
2022/01/12 10:44:41;;;;;;;23.75;11.02;;;;;;;;;;6226653;28;20049;-73
2022/01/12 10:47:46;;;;;;;23.77;11.00;;;;;;;;;;6228570;28;20052;-73
2022/01/12 10:50:55;;;;;;;20.80;9.35;;;;;;;;;;6228027;28;20045;-73
2022/01/12 10:54:00;;;;;;;23.35;10.30;;;;;;;;;;6244196;28;20107;-72
2022/01/12 10:57:13;;;;;;;27.83;9.23;;;;;;;;;;6227792;28;20720;-74
2022/01/12 11:00:22;;;;;;;22.25;10.57;;;;;;;;;;6245358;28;20130;-73
2022/01/12 11:03:28;;;;;;;22.45;8.07;;;;;;;;;;6226961;28;20049;-73
2022/01/12 11:06:31;;;;;;;23.55;9.98;;;;;;;;;;6243469;28;20050;-74
2022/01/12 11:09:34;;;;;;;21.33;10.38;;;;;;;;;;6228705;28;20079;-72
2022/01/12 11:12:38;;;;;;;29.40;11.38;;;;;;;;;;6250972;28;20620;-73
2022/01/12 11:15:43;;;;;;;23.58;10.35;;;;;;;;;;6249629;28;20049;-73
2022/01/12 11:18:46;;;;;;;23.80;10.52;;;;;;;;;;6258749;28;20044;-73
2022/01/12 11:21:55;;;;;;;25.13;11.02;;;;;;;;;;6259727;28;20107;-72
2022/01/12 11:25:00;;;;;;;24.80;10.73;;;;;;;;;;6242476;28;20068;-72
2022/01/12 11:28:07;;;;;;;192.63;89.03;;;;;;;;;;6243163;28;20068;-74
2022/01/12 11:31:12;;;;;;;34.42;14.57;;;;;;;;;;6250629;28;20091;-71
2022/01/12 11:34:19;;;;;;;22.77;10.40;;;;;;;;;;6243140;28;20049;-71
2022/01/12 11:37:22;;;;;;;22.45;10.23;;;;;;;;;;6225417;28;20171;-72
2022/01/12 11:40:37;;;;;;;33.05;13.50;;;;;;;;;;6244028;28;20052;-71
2022/01/12 11:43:43;;;;;;;26.30;11.15;;;;;;;;;;6226394;28;20041;-72
2022/01/12 11:46:48;;;;;;;24.38;9.77;;;;;;;;;;6226579;28;20046;-73
2022/01/12 11:49:54;;;;;;;23.27;10.45;;;;;;;;;;6225045;28;20050;-71
2022/01/12 11:52:57;;;;;;;25.65;10.23;;;;;;;;;;6227917;28;20557;-72
2022/01/12 11:56:13;;;;;;;29.33;11.32;;;;;;;;;;6250617;28;20069;-71
2022/01/12 11:59:16;;;;;;;28.88;11.55;;;;;;;;;;6267774;28;20052;-72
2022/01/12 12:02:22;;;;;;;26.23;11.10;;;;;;;;;;6237361;28;20503;-72
2022/01/12 12:05:33;;;;;;;24.50;10.75;;;;;;;;;;6246793;28;20053;-72
2022/01/12 12:08:36;;;;;;;22.63;10.90;;;;;;;;;;6242411;28;20083;-73
2022/01/12 12:11:39;;;;;;;24.05;10.70;;;;;;;;;;6241884;28;20081;-73
2022/01/12 12:14:45;;;;;;;25.00;10.80;;;;;;;;;;6242814;28;20124;-72
2022/01/12 12:17:50;;;;;;;27.25;11.57;;;;;;;;;;6243718;28;20419;-71
2022/01/12 12:20:53;;;;;;;26.38;11.38;;;;;;;;;;6242735;28;20056;-73
2022/01/12 12:24:07;;;;;;;25.30;11.52;;;;;;;;;;6240515;28;20554;-72
2022/01/12 12:27:11;;;;;;;28.38;12.07;;;;;;;;;;6243345;28;20484;-72
2022/01/12 12:30:15;;;;;;;28.25;11.60;;;;;;;;;;6243088;28;20095;-73
2022/01/12 12:33:21;;;;;;;40.03;17.25;;;;;;;;;;6241405;28;20052;-71
2022/01/12 12:36:24;;;;;;;38.95;18.77;;;;;;;;;;6250488;28;20045;-74
2022/01/12 12:39:29;;;;;;;27.42;12.30;;;;;;;;;;6241351;28;20069;-74
2022/01/12 12:42:36;;;;;;;40.90;12.45;;;;;;;;;;6242172;28;20430;-75
2022/01/12 12:45:43;;;;;;;25.90;11.00;;;;;;;;;;6240458;28;20054;-76
2022/01/12 12:48:48;;;;;;;33.05;13.07;;;;;;;;;;6243089;28;20046;-74
2022/01/12 12:52:00;;;;;;;26.42;11.88;;;;;;;;;;6241535;28;20492;-73
2022/01/12 12:55:05;;;;;;;26.88;11.98;;;;;;;;;;6241423;28;20049;-74
2022/01/12 12:58:08;;;;;;;26.15;11.27;;;;;;;;;;6242655;28;20034;-71
2022/01/12 13:01:16;;;;;;;25.45;12.05;;;;;;;;;;6242965;28;20096;-72
2022/01/12 13:04:23;;;;;;;27.08;11.93;;;;;;;;;;6242760;28;20049;-72
2022/01/12 13:07:29;;;;;;;25.85;12.82;;;;;;;;;;6235366;28;20041;-72
2022/01/12 13:10:33;;;;;;;26.83;12.20;;;;;;;;;;6248726;28;20403;-73
2022/01/12 13:13:36;;;;;;;30.45;13.32;;;;;;;;;;6267504;28;20480;-72
2022/01/12 13:16:44;;;;;;;33.33;13.57;;;;;;;;;;6247615;28;20464;-71
2022/01/12 13:23:09;;;;;;;30.20;14.35;;;;;;;;;;6259341;28;20507;-71
2022/01/12 13:26:13;;;;;;;30.63;14.40;;;;;;;;;;6242163;28;20045;-72
2022/01/12 13:29:19;;;;;;;26.70;12.45;;;;;;;;;;6248788;28;20053;-72
2022/01/12 13:32:23;;;;;;;34.88;13.95;;;;;;;;;;6258123;28;20056;-72
2022/01/12 13:35:28;;;;;;;27.70;11.93;;;;;;;;;;6258154;28;20515;-71
2022/01/12 13:38:32;;;;;;;28.35;11.75;;;;;;;;;;6267518;28;20099;-72
2022/01/12 13:41:36;;;;;;;27.48;12.57;;;;;;;;;;6268982;28;20131;-72
2022/01/12 13:44:39;;;;;;;27.55;12.95;;;;;;;;;;6253423;28;20095;-72
2022/01/12 13:47:45;;;;;;;26.23;12.55;;;;;;;;;;6251510;28;20047;-72
2022/01/12 13:50:53;;;;;;;27.25;12.80;;;;;;;;;;6250483;28;20594;-72
2022/01/12 13:54:03;;;;;;;35.90;12.93;;;;;;;;;;6271414;28;20514;-72
2022/01/12 13:57:07;;;;;;;62.72;26.13;;;;;;;;;;6268753;28;20056;-72
2022/01/12 14:00:19;;;;;;;27.33;13.20;;;;;;;;;;6266920;28;20475;-72
2022/01/12 14:03:24;;;;;;;31.92;12.65;;;;;;;;;;6267620;28;21056;-72
2022/01/12 14:06:31;;;;;;;29.23;12.80;;;;;;;;;;6268194;28;20099;-72
2022/01/12 14:09:37;;;;;;;27.35;11.95;;;;;;;;;;6268328;28;20107;-72
2022/01/12 14:12:48;;;;;;;26.67;12.38;;;;;;;;;;6269387;28;20128;-72
2022/01/12 14:15:51;;;;;;;28.25;12.02;;;;;;;;;;6270816;28;20383;-72
2022/01/12 14:18:57;;;;;;;29.25;11.57;;;;;;;;;;6270760;28;20059;-72
2022/01/12 14:22:02;;;;;;;30.48;13.77;;;;;;;;;;6269331;28;20151;-71
2022/01/12 14:25:07;;;;;;;25.92;11.40;;;;;;;;;;6269870;28;20065;-72
2022/01/12 14:28:12;;;;;;;27.73;11.68;;;;;;;;;;6252892;28;20107;-72
2022/01/12 14:31:14;;;;;;;25.67;11.95;;;;;;;;;;6252296;28;20047;-72
2022/01/12 14:34:18;;;;;;;25.13;10.73;;;;;;;;;;6251055;28;20317;-72
2022/01/12 14:37:25;;;;;;;22.88;10.10;;;;;;;;;;6251695;28;20514;-72
2022/01/12 14:40:31;;;;;;;26.05;10.98;;;;;;;;;;6270674;28;20048;-72
2022/01/12 14:43:34;;;;;;;25.30;11.95;;;;;;;;;;6250652;28;20045;-74
2022/01/12 14:46:37;;;;;;;27.10;11.45;;;;;;;;;;6269610;28;20049;-72
2022/01/12 14:49:40;;;;;;;22.77;10.73;;;;;;;;;;6269915;28;20498;-72
2022/01/12 14:52:44;;;;;;;27.75;11.40;;;;;;;;;;6251672;28;20503;-71
2022/01/12 14:55:48;;;;;;;23.70;10.48;;;;;;;;;;6268754;28;20245;-71
2022/01/12 14:58:51;;;;;;;20.92;11.18;;;;;;;;;;6269825;28;20396;-72
2022/01/12 15:01:54;;;;;;;25.27;10.70;;;;;;;;;;6269552;28;20041;-71
2022/01/12 15:05:00;;;;;;;21.80;10.73;;;;;;;;;;6267922;28;20483;-70
2022/01/12 15:08:04;;;;;;;25.80;10.48;;;;;;;;;;6251429;28;20127;-74
2022/01/12 15:11:07;;;;;;;27.10;10.68;;;;;;;;;;6269588;28;20044;-72
2022/01/12 15:14:24;;;;;;;20.83;10.02;;;;;;;;;;6268607;28;20126;-74
2022/01/12 15:17:30;;;;;;;23.20;10.93;;;;;;;;;;6250084;28;20056;-72
2022/01/12 15:20:33;;;;;;;26.30;11.02;;;;;;;;;;6269682;28;20151;-74
2022/01/12 15:23:38;;;;;;;25.85;11.07;;;;;;;;;;6251290;28;20468;-73
2022/01/12 15:26:41;;;;;;;25.58;10.85;;;;;;;;;;6267427;28;20045;-72
2022/01/12 15:29:44;;;;;;;24.85;11.27;;;;;;;;;;6250950;28;20048;-73
2022/01/12 15:32:48;;;;;;;25.95;11.50;;;;;;;;;;6250863;28;20045;-74
2022/01/12 15:35:54;;;;;;;28.45;12.13;;;;;;;;;;6268326;28;20053;-73
2022/01/12 15:38:59;;;;;;;29.45;12.05;;;;;;;;;;6267818;28;20191;-73
2022/01/12 15:42:05;;;;;;;29.88;12.45;;;;;;;;;;6250765;28;20132;-72
2022/01/12 15:45:09;;;;;;;29.13;11.70;;;;;;;;;;6268456;28;20056;-73
2022/01/12 15:48:12;;;;;;;26.58;11.63;;;;;;;;;;6267135;28;20041;-73
2022/01/12 15:51:15;;;;;;;25.00;11.88;;;;;;;;;;6243815;28;20240;-73
2022/01/12 15:54:20;;;;;;;28.30;11.88;;;;;;;;;;6226226;28;20451;-73
2022/01/12 15:57:23;;;;;;;25.77;12.30;;;;;;;;;;6257927;28;20048;-72
2022/01/12 16:00:26;;;;;;;26.50;12.68;;;;;;;;;;6266478;28;20049;-72
2022/01/12 16:03:29;;;;;;;36.13;13.32;;;;;;;;;;6267276;28;20049;-72
2022/01/12 16:06:32;;;;;;;39.75;12.88;;;;;;;;;;6268147;28;20044;-72
2022/01/12 16:09:37;;;;;;;44.10;14.50;;;;;;;;;;6265583;28;20041;-72
2022/01/12 16:12:40;;;;;;;30.77;13.73;;;;;;;;;;6267135;28;20051;-73
2022/01/12 16:16:05;;;;;;;34.35;12.85;;;;;;;;;;6266618;28;20120;-73
2022/01/12 16:19:09;;;;;;;35.50;14.52;;;;;;;;;;6267543;28;20091;-74
2022/01/12 16:22:12;;;;;;;34.55;14.95;;;;;;;;;;6266685;28;20041;-74
2022/01/12 16:25:17;;;;;;;37.55;15.50;;;;;;;;;;6266592;28;20099;-74
2022/01/12 16:28:19;;;;;;;38.30;18.52;;;;;;;;;;6266219;28;20041;-72
2022/01/12 16:31:23;;;;;;;66.47;26.52;;;;;;;;;;6265471;28;20429;-72
2022/01/12 16:34:26;;;;;;;41.10;17.77;;;;;;;;;;6265190;28;20493;-73
2022/01/12 16:37:29;;;;;;;46.10;18.17;;;;;;;;;;6267388;28;20049;-72
2022/01/12 16:40:33;;;;;;;40.03;17.42;;;;;;;;;;6266322;28;20480;-73
2022/01/12 16:43:37;;;;;;;43.97;20.15;;;;;;;;;;6265222;28;20079;-73
2022/01/12 16:46:40;;;;;;;46.08;19.80;;;;;;;;;;6267442;28;20357;-74
2022/01/12 16:49:46;;;;;;;49.83;20.50;;;;;;;;;;6265816;28;20472;-72
2022/01/12 16:52:51;;;;;;;53.17;22.05;;;;;;;;;;6264794;28;20052;-72
2022/01/12 16:55:57;;;;;;;51.17;21.20;;;;;;;;;;6266065;28;20053;-71
2022/01/12 16:59:00;;;;;;;61.70;24.70;;;;;;;;;;6263823;28;20502;-71
2022/01/12 17:02:03;;;;;;;62.30;24.75;;;;;;;;;;6268253;28;20075;-72
2022/01/12 17:05:07;;;;;;;62.00;24.45;;;;;;;;;;6269623;28;20049;-71
2022/01/12 17:08:10;;;;;;;53.05;21.98;;;;;;;;;;6270871;28;20045;-71
2022/01/12 17:11:18;;;;;;;71.90;22.92;;;;;;;;;;6270268;28;20049;-71
2022/01/12 17:14:22;;;;;;;64.07;25.60;;;;;;;;;;6271043;28;20041;-71
2022/01/12 17:17:45;;;;;;;54.83;21.73;;;;;;;;;;6271785;28;20041;-71
2022/01/12 17:20:48;;;;;;;58.25;24.23;;;;;;;;;;6275460;28;20345;-71
2022/01/12 17:23:55;;;;;;;55.33;22.00;;;;;;;;;;6274083;28;20063;-71
2022/01/12 17:27:08;;;;;;;53.45;22.95;;;;;;;;;;6274437;28;20037;-72
2022/01/12 17:30:11;;;;;;;55.22;23.85;;;;;;;;;;6273838;28;20114;-71
2022/01/12 17:33:14;;;;;;;50.97;22.60;;;;;;;;;;6274960;28;20488;-71
2022/01/12 17:36:36;;;;;;;52.75;24.10;;;;;;;;;;6289153;28;20049;-72
2022/01/12 17:39:43;;;;;;;53.95;22.77;;;;;;;;;;6273530;28;20056;-71
2022/01/12 17:42:48;;;;;;;52.90;22.10;;;;;;;;;;6274949;28;20170;-72
2022/01/12 17:45:52;;;;;;;52.40;22.42;;;;;;;;;;6274551;28;20044;-72
2022/01/12 17:49:00;;;;;;;;;;;;;;;;;;6273057;28;20041;-71
2022/01/12 17:52:03;;;;;;;47.33;20.42;;;;;;;;;;6275145;28;19985;-71
2022/01/12 17:55:10;;;;;;;47.75;21.35;;;;;;;;;;6273760;28;20617;-73
2022/01/12 17:58:15;;;;;;;42.70;19.00;;;;;;;;;;6273963;28;20075;-71
2022/01/12 18:01:18;;;;;;;45.42;20.00;;;;;;;;;;6274432;28;20131;-71
2022/01/12 18:04:21;;;;;;;47.15;19.88;;;;;;;;;;6273666;28;20053;-70
2022/01/12 18:07:24;;;;;;;49.60;20.38;;;;;;;;;;6274622;28;20041;-70
2022/01/12 18:10:27;;;;;;;51.10;21.58;;;;;;;;;;6273788;28;20483;-70
2022/01/12 18:13:32;;;;;;;48.58;20.98;;;;;;;;;;6271069;28;20487;-70
2022/01/12 18:16:37;;;;;;;46.28;19.85;;;;;;;;;;6269505;28;20087;-71
2022/01/12 18:19:43;;;;;;;48.63;21.52;;;;;;;;;;6269428;28;20518;-71
2022/01/12 18:22:47;;;;;;;46.20;19.15;;;;;;;;;;6269106;28;20053;-72
2022/01/12 18:25:49;;;;;;;42.38;18.65;;;;;;;;;;6270508;28;20049;-72
2022/01/12 18:28:54;;;;;;;43.00;18.33;;;;;;;;;;6268296;28;20480;-72
2022/01/12 18:31:57;;;;;;;48.15;21.05;;;;;;;;;;6269652;28;20043;-72
2022/01/12 18:35:00;;;;;;;43.25;20.33;;;;;;;;;;6270378;28;20060;-72
2022/01/12 18:38:03;;;;;;;45.63;19.75;;;;;;;;;;6270063;28;20051;-72
2022/01/12 18:41:09;;;;;;;48.55;20.08;;;;;;;;;;6267426;28;20049;-72
2022/01/12 18:44:13;;;;;;;47.15;20.63;;;;;;;;;;6270302;28;20498;-72
2022/01/12 18:47:17;;;;;;;44.88;19.80;;;;;;;;;;6270323;28;20052;-72
2022/01/12 18:50:20;;;;;;;47.95;20.73;;;;;;;;;;6267455;28;20045;-72
2022/01/12 18:53:25;;;;;;;47.97;20.05;;;;;;;;;;6269598;28;20044;-72
2022/01/12 18:56:28;;;;;;;45.25;20.23;;;;;;;;;;6268561;28;20048;-71
2022/01/12 18:59:32;;;;;;;41.80;19.38;;;;;;;;;;6269171;28;20480;-72
2022/01/12 19:02:35;;;;;;;44.28;19.48;;;;;;;;;;6267352;28;20120;-72
2022/01/12 19:05:39;;;;;;;43.95;19.73;;;;;;;;;;6268383;28;20344;-71
2022/01/12 19:08:42;;;;;;;42.75;18.65;;;;;;;;;;6268374;28;20041;-71
2022/01/12 19:11:45;;;;;;;45.85;18.58;;;;;;;;;;6266938;28;20045;-72